createdAt,value
2023-05-02T04:31:28.775Z,3.70
2023-05-02T04:34:31.656Z,3.05
2023-05-02T04:37:34.322Z,3.75
2023-05-02T04:40:37.092Z,3.45
2023-05-02T04:43:39.739Z,3.45
2023-05-02T04:46:42.510Z,4.35
2023-05-02T04:49:45.134Z,3.40
2023-05-02T04:52:47.874Z,3.47
2023-05-02T04:55:50.660Z,3.62
2023-05-02T04:58:53.233Z,3.50
2023-05-02T05:01:56.413Z,3.10
2023-05-02T05:05:01.907Z,2.58
2023-05-02T05:08:04.808Z,3.30
2023-05-02T05:11:07.463Z,3.10
2023-05-02T05:14:10.193Z,3.10
2023-05-02T05:17:12.789Z,3.33
2023-05-02T05:20:15.449Z,3.30
2023-05-02T05:23:18.567Z,3.20
2023-05-02T05:26:21.513Z,3.70
2023-05-02T05:29:24.212Z,2.80
2023-05-02T05:32:26.799Z,3.40
2023-05-02T05:35:29.402Z,3.03
2023-05-02T05:38:32.259Z,3.22
2023-05-02T05:41:35.320Z,3.12
2023-05-02T05:44:37.992Z,3.50
2023-05-02T05:47:41.087Z,3.60
2023-05-02T05:50:44.199Z,4.03
2023-05-02T05:53:46.736Z,3.72
2023-05-02T05:56:49.268Z,3.80
2023-05-02T05:59:52.251Z,4.00
2023-05-02T06:02:54.891Z,3.83
2023-05-02T06:05:57.518Z,3.53
2023-05-02T06:09:01.033Z,3.87
2023-05-02T06:12:03.835Z,3.70
2023-05-02T06:15:06.788Z,3.85
2023-05-02T06:18:09.416Z,3.75
2023-05-02T06:21:11.941Z,4.30
2023-05-02T06:24:14.495Z,3.87
2023-05-02T06:27:17.019Z,3.53
2023-05-02T06:30:19.594Z,3.53
2023-05-02T06:33:22.279Z,3.22
2023-05-02T06:36:24.854Z,3.40
2023-05-02T06:39:27.441Z,3.55
2023-05-02T06:42:30.014Z,3.30
2023-05-02T06:45:32.760Z,3.50
2023-05-02T06:48:38.424Z,3.65
2023-05-02T06:51:41.128Z,3.40
2023-05-02T06:54:43.763Z,3.55
2023-05-02T06:57:46.508Z,3.47
2023-05-02T07:00:50.522Z,3.65
2023-05-02T07:03:53.187Z,3.28
2023-05-02T07:06:55.851Z,3.60
2023-05-02T07:09:58.681Z,3.80
2023-05-02T07:13:01.348Z,3.22
2023-05-02T07:16:04.242Z,3.25
2023-05-02T07:19:06.949Z,3.72
2023-05-02T07:22:09.977Z,3.00
2023-05-02T07:25:12.819Z,2.80
2023-05-02T07:28:16.065Z,3.25
2023-05-02T07:31:19.145Z,3.30
2023-05-02T07:34:21.768Z,3.15
2023-05-02T07:37:24.355Z,3.40
2023-05-02T07:40:27.100Z,2.78
2023-05-02T07:43:29.970Z,2.72
2023-05-02T07:46:32.554Z,2.87
2023-05-02T07:49:36.484Z,2.78
2023-05-02T07:52:39.775Z,3.10
2023-05-02T07:55:42.467Z,2.92
2023-05-02T07:58:45.057Z,3.10
2023-05-02T08:01:47.544Z,2.95
2023-05-02T08:04:50.180Z,2.70
2023-05-02T08:07:52.756Z,2.53
2023-05-02T08:10:55.465Z,2.80
2023-05-02T08:13:58.079Z,2.70
2023-05-02T08:17:00.760Z,3.03
2023-05-02T08:20:03.497Z,2.40
2023-05-02T08:23:06.612Z,2.67
2023-05-02T08:26:09.924Z,2.40
2023-05-02T08:29:12.699Z,2.83
2023-05-02T08:32:24.571Z,2.20
2023-05-02T08:35:29.373Z,2.42
2023-05-02T08:38:31.928Z,2.75
2023-05-02T08:41:34.521Z,2.30
2023-05-02T08:44:37.667Z,2.10
2023-05-02T08:47:43.160Z,2.10
2023-05-02T08:50:48.473Z,2.67
2023-05-02T08:53:51.192Z,2.00
2023-05-02T08:56:57.325Z,2.10
2023-05-02T08:59:59.930Z,2.30
2023-05-02T09:03:27.306Z,2.30
2023-05-02T09:06:30.153Z,2.55
2023-05-02T09:09:32.970Z,2.33
2023-05-02T09:12:35.579Z,2.37
2023-05-02T09:15:38.474Z,2.40
2023-05-02T09:18:48.241Z,2.30
2023-05-02T09:21:50.870Z,2.37
2023-05-02T09:24:56.620Z,2.58
2023-05-02T09:28:01.665Z,2.30
2023-05-02T09:34:14.440Z,1.98
2023-05-02T09:37:34.581Z,2.30
2023-05-02T09:40:37.459Z,2.62
2023-05-02T09:43:40.594Z,2.70
2023-05-02T09:46:47.258Z,2.37
2023-05-02T09:49:49.902Z,2.50
2023-05-02T09:53:05.712Z,2.12
2023-05-02T09:56:08.623Z,2.00
2023-05-02T09:59:14.931Z,2.45
2023-05-02T10:02:17.561Z,2.50
2023-05-02T10:05:20.234Z,2.75
2023-05-02T10:08:26.243Z,2.70
2023-05-02T10:11:28.899Z,2.40
2023-05-02T10:14:31.450Z,2.90
2023-05-02T10:17:48.320Z,2.55
2023-05-02T10:21:10.799Z,2.90
2023-05-02T10:24:13.348Z,2.62
2023-05-02T10:27:16.962Z,3.10
2023-05-02T10:30:21.178Z,2.50
2023-05-02T10:33:24.220Z,2.33
2023-05-02T10:36:27.161Z,3.72
2023-05-02T10:39:29.891Z,2.45
2023-05-02T10:42:38.644Z,2.70
2023-05-02T10:45:41.974Z,3.08
2023-05-02T10:48:44.507Z,2.60
2023-05-02T10:51:47.416Z,2.20
2023-05-02T10:54:50.112Z,2.25
2023-05-02T10:58:01.115Z,2.00
2023-05-02T11:01:28.993Z,2.45
2023-05-02T11:05:05.167Z,2.30
2023-05-02T11:08:30.499Z,2.50
2023-05-02T11:11:42.901Z,2.20
2023-05-02T11:14:47.665Z,2.17
2023-05-02T11:18:09.281Z,1.85
2023-05-02T11:21:32.823Z,1.60
2023-05-02T11:24:50.243Z,1.98
2023-05-02T11:27:52.811Z,1.77
2023-05-02T11:30:56.121Z,2.50
2023-05-02T11:34:02.908Z,2.00
2023-05-02T11:37:12.804Z,2.17
2023-05-02T11:40:16.036Z,1.60
2023-05-02T11:43:20.198Z,2.75
2023-05-02T11:46:23.183Z,2.03
2023-05-02T11:49:26.014Z,2.08
2023-05-02T11:52:28.868Z,2.08
2023-05-02T11:55:31.463Z,2.83
2023-05-02T11:58:34.361Z,2.15
2023-05-02T12:01:37.544Z,1.80
2023-05-02T12:04:44.852Z,1.90
2023-05-02T12:07:49.490Z,1.98
2023-05-02T12:10:53.247Z,2.20
2023-05-02T12:13:56.015Z,2.22
2023-05-02T12:16:58.656Z,1.80
2023-05-02T12:20:01.430Z,2.20
2023-05-02T12:23:05.128Z,2.00
2023-05-02T12:26:31.101Z,1.87
2023-05-02T12:29:42.231Z,1.67
2023-05-02T12:32:45.806Z,1.90
2023-05-02T12:35:48.478Z,2.17
2023-05-02T12:38:57.267Z,1.87
2023-05-02T12:41:59.857Z,2.03
2023-05-02T12:45:02.801Z,2.00
2023-05-02T12:48:37.832Z,1.90
2023-05-02T12:51:40.977Z,2.15
2023-05-02T12:54:44.594Z,2.00
2023-05-02T12:57:47.884Z,2.10
2023-05-02T13:00:50.467Z,2.20
2023-05-02T13:03:53.148Z,1.50
2023-05-02T13:06:56.480Z,1.70
2023-05-02T13:09:59.251Z,1.98
2023-05-02T13:13:02.903Z,1.90
2023-05-02T13:16:06.126Z,2.37
2023-05-02T13:19:08.989Z,2.10
2023-05-02T13:22:11.794Z,1.92
2023-05-02T13:25:14.326Z,1.92
2023-05-02T13:28:16.905Z,2.20
2023-05-02T13:31:19.505Z,2.30
2023-05-02T13:34:22.099Z,2.40
2023-05-02T13:37:25.045Z,2.28
2023-05-02T13:40:27.654Z,2.20
2023-05-02T13:43:30.187Z,2.12
2023-05-02T13:46:36.791Z,1.60
2023-05-02T13:49:39.597Z,2.47
2023-05-02T13:52:42.164Z,2.08
2023-05-02T13:55:44.761Z,1.87
2023-05-02T13:58:47.367Z,1.95
2023-05-02T14:01:49.963Z,2.60
2023-05-02T14:04:52.637Z,2.50
2023-05-02T14:07:55.248Z,2.50
2023-05-02T14:10:57.842Z,1.98
2023-05-02T14:14:01.152Z,2.20
2023-05-02T14:17:04.026Z,2.50
2023-05-02T14:20:08.274Z,2.37
2023-05-02T14:23:10.791Z,2.83
2023-05-02T14:26:14.254Z,2.12
2023-05-02T14:29:17.124Z,2.33
2023-05-02T14:32:19.732Z,2.33
2023-05-02T14:35:22.458Z,2.08
2023-05-02T14:38:24.958Z,2.00
2023-05-02T14:41:27.967Z,2.10
2023-05-02T14:44:30.922Z,1.92
2023-05-02T14:47:33.564Z,2.53
2023-05-02T14:50:37.597Z,2.28
2023-05-02T14:53:40.181Z,2.40
2023-05-02T14:56:43.250Z,2.60
2023-05-02T14:59:46.158Z,2.20
2023-05-02T15:02:48.917Z,2.35
2023-05-02T15:05:51.599Z,2.67
2023-05-02T15:08:54.211Z,2.15
2023-05-02T15:11:56.939Z,3.03
2023-05-02T15:14:59.478Z,2.12
2023-05-02T15:18:02.245Z,2.10
2023-05-02T15:21:05.093Z,2.40
2023-05-02T15:24:07.827Z,2.65
